createdAt,value
2022-11-19T00:02:02.834Z,3.03
2022-11-19T00:04:34.604Z,2.84
2022-11-19T00:07:06.594Z,2.97
2022-11-19T00:09:38.301Z,2.93
2022-11-19T00:12:30.033Z,2.88
2022-11-19T00:15:04.228Z,2.75
2022-11-19T00:17:36.161Z,2.82
2022-11-19T00:20:10.145Z,2.80
2022-11-19T00:22:42.759Z,2.77
2022-11-19T00:25:15.235Z,2.63
2022-11-19T00:27:47.538Z,2.69
2022-11-19T00:30:40.884Z,2.66
2022-11-19T00:33:11.842Z,2.64
2022-11-19T00:35:44.381Z,2.62
2022-11-19T00:38:16.146Z,2.58
2022-11-19T00:40:47.937Z,2.58
2022-11-19T00:43:37.591Z,2.56
2022-11-19T00:46:09.698Z,2.57
2022-11-19T00:48:42.528Z,2.55
2022-11-19T00:51:14.828Z,2.52
2022-11-19T00:53:46.858Z,2.51
2022-11-19T00:56:21.140Z,2.52
2022-11-19T00:58:53.825Z,2.52
2022-11-19T01:01:27.298Z,2.44
2022-11-19T01:03:59.208Z,2.45
2022-11-19T01:06:33.643Z,2.41
2022-11-19T01:09:06.116Z,2.39
2022-11-19T01:11:40.135Z,2.37
2022-11-19T01:14:12.257Z,2.34
2022-11-19T01:16:44.258Z,2.28
2022-11-19T01:19:17.208Z,2.28
2022-11-19T01:21:49.619Z,2.26
2022-11-19T01:24:22.407Z,2.24
2022-11-19T01:26:54.245Z,2.20
2022-11-19T01:29:26.159Z,2.19
2022-11-19T01:31:57.959Z,2.15
2022-11-19T01:34:32.205Z,2.12
2022-11-19T01:37:04.475Z,2.09
2022-11-19T01:39:36.366Z,2.06
2022-11-19T01:42:33.362Z,2.03
2022-11-19T01:45:09.347Z,1.98
2022-11-19T01:47:41.826Z,1.96
2022-11-19T01:50:14.773Z,1.94
2022-11-19T01:52:47.059Z,1.91
2022-11-19T01:55:20.078Z,1.87
2022-11-19T01:57:56.410Z,1.86
2022-11-19T02:00:28.854Z,1.82
2022-11-19T02:03:04.362Z,1.76
2022-11-19T02:05:37.210Z,1.72
2022-11-19T02:08:30.918Z,1.70
2022-11-19T02:11:15.565Z,1.68
2022-11-19T02:13:58.303Z,1.66
2022-11-19T02:16:39.452Z,1.65
2022-11-19T02:19:23.526Z,1.62
2022-11-19T02:22:05.238Z,1.59
2022-11-19T02:24:52.355Z,1.55
2022-11-19T02:27:47.105Z,1.41
2022-11-19T02:30:21.586Z,1.51
2022-11-19T02:32:56.218Z,1.49
2022-11-19T02:35:36.795Z,1.47
2022-11-19T02:38:16.900Z,1.46
2022-11-19T02:40:53.358Z,1.42
2022-11-19T02:43:34.217Z,1.41
2022-11-19T02:46:11.343Z,1.37
2022-11-19T02:48:48.314Z,1.36
2022-11-19T02:51:21.898Z,1.35
2022-11-19T02:53:55.384Z,1.33
2022-11-19T02:56:51.537Z,1.34
2022-11-19T02:59:44.811Z,1.33
2022-11-19T03:02:37.468Z,1.32
2022-11-19T03:05:14.713Z,1.29
2022-11-19T03:07:47.312Z,1.28
2022-11-19T03:10:24.108Z,1.25
2022-11-19T03:12:59.934Z,1.22
2022-11-19T03:16:02.901Z,1.20
2022-11-19T03:18:39.486Z,1.16
2022-11-19T03:21:22.656Z,1.04
2022-11-19T03:24:00.192Z,1.01
2022-11-19T03:26:37.959Z,1.11
2022-11-19T03:29:13.749Z,1.07
2022-11-19T03:32:00.500Z,1.04
2022-11-19T03:34:34.511Z,1.02
2022-11-19T03:37:09.425Z,0.95
2022-11-19T03:39:44.010Z,0.97
2022-11-19T03:42:21.703Z,0.92
2022-11-19T03:44:57.502Z,0.90
2022-11-19T03:47:35.608Z,0.87
2022-11-19T03:50:13.446Z,0.84
2022-11-19T03:52:46.532Z,0.82
2022-11-19T03:55:19.005Z,0.81
2022-11-19T03:57:51.799Z,0.78
2022-11-19T04:00:23.580Z,0.72
2022-11-19T04:02:55.596Z,0.71
2022-11-19T04:05:27.613Z,0.67
2022-11-19T04:07:59.679Z,0.55
2022-11-19T04:10:31.352Z,0.61
2022-11-19T04:13:03.412Z,0.60
2022-11-19T04:15:35.360Z,0.55
2022-11-19T04:18:09.234Z,0.52
2022-11-19T04:20:43.396Z,0.48
2022-11-19T04:23:15.160Z,0.48
2022-11-19T04:25:49.431Z,0.45
2022-11-19T04:28:19.938Z,0.40
2022-11-19T04:30:51.690Z,0.29
2022-11-19T04:33:23.739Z,0.34
2022-11-19T04:35:55.537Z,0.32
2022-11-19T04:38:27.614Z,0.29
2022-11-19T04:40:59.717Z,0.30
2022-11-19T04:43:31.811Z,0.30
2022-11-19T04:46:04.304Z,0.26
2022-11-19T04:48:36.277Z,0.23
2022-11-19T04:51:08.086Z,0.19
2022-11-19T04:53:39.898Z,0.18
2022-11-19T04:56:12.161Z,0.16
2022-11-19T04:58:45.246Z,0.15
2022-11-19T05:01:20.510Z,0.15
2022-11-19T05:03:52.585Z,0.03
2022-11-19T05:06:24.542Z,0.10
2022-11-19T05:08:56.513Z,0.07
2022-11-19T05:11:28.395Z,-0.08
2022-11-19T05:14:02.675Z,0.02
2022-11-19T05:16:34.515Z,-0.00
2022-11-19T05:19:06.658Z,-0.06
2022-11-19T05:21:38.360Z,-0.13
2022-11-19T05:24:10.983Z,-0.06
2022-11-19T05:26:42.918Z,-0.03
2022-11-19T05:29:14.927Z,-0.09
2022-11-19T05:31:49.068Z,-0.09
2022-11-19T05:34:23.814Z,-0.22
2022-11-19T05:36:55.510Z,-0.18
2022-11-19T05:39:27.690Z,-0.20
2022-11-19T05:41:59.937Z,-0.22
2022-11-19T05:44:31.858Z,-0.20
2022-11-19T05:47:04.353Z,-0.22
2022-11-19T05:49:36.316Z,-0.24
2022-11-19T05:52:08.394Z,-0.25
2022-11-19T05:54:40.144Z,-0.26
2022-11-19T05:57:12.486Z,-0.27
2022-11-19T05:59:47.802Z,-0.28
2022-11-19T06:02:21.278Z,-0.30
2022-11-19T06:04:54.035Z,-0.30
2022-11-19T06:07:26.840Z,-0.32
2022-11-19T06:10:01.611Z,-0.32
2022-11-19T06:12:35.021Z,-0.34
2022-11-19T06:15:11.867Z,-0.36
2022-11-19T06:17:48.218Z,-0.35
2022-11-19T06:20:22.904Z,-0.36
2022-11-19T06:22:58.397Z,-0.38
2022-11-19T06:25:31.803Z,-0.35
2022-11-19T06:28:04.820Z,-0.32
2022-11-19T06:30:38.335Z,-0.31
2022-11-19T06:33:10.282Z,-0.32
2022-11-19T06:35:43.273Z,-0.32
2022-11-19T06:38:19.138Z,-0.32
2022-11-19T06:40:51.431Z,-0.30
2022-11-19T06:43:26.803Z,-0.27
2022-11-19T06:46:02.008Z,-0.27
2022-11-19T06:48:38.615Z,-0.26
2022-11-19T06:51:11.744Z,-0.25
2022-11-19T06:53:46.394Z,-0.24
2022-11-19T06:56:23.088Z,-0.19
2022-11-19T06:59:00.416Z,-0.18
2022-11-19T07:01:33.164Z,-0.14
2022-11-19T07:04:05.416Z,-0.11
2022-11-19T07:06:37.544Z,-0.06
2022-11-19T07:09:11.296Z,-0.02
2022-11-19T07:11:43.484Z,0.08
2022-11-19T07:14:16.251Z,0.18
2022-11-19T07:16:48.517Z,0.24
2022-11-19T07:19:20.788Z,0.32
2022-11-19T07:21:53.243Z,0.41
2022-11-19T07:24:25.510Z,0.50
2022-11-19T07:26:57.338Z,0.56
2022-11-19T07:29:29.425Z,0.55
2022-11-19T07:32:02.582Z,0.56
2022-11-19T07:34:34.416Z,0.77
2022-11-19T07:37:06.598Z,0.86
2022-11-19T07:39:38.308Z,0.96
2022-11-19T07:42:28.736Z,1.09
2022-11-19T07:45:04.558Z,1.15
2022-11-19T07:47:37.457Z,1.24
2022-11-19T07:50:10.864Z,1.31
2022-11-19T07:52:43.262Z,1.43
2022-11-19T07:55:15.960Z,1.53
2022-11-19T07:57:47.740Z,1.46
2022-11-19T08:00:21.662Z,1.53
2022-11-19T08:02:53.985Z,1.66
2022-11-19T08:05:28.332Z,1.55
2022-11-19T08:08:00.710Z,1.73
2022-11-19T08:10:32.904Z,1.81
2022-11-19T08:13:04.977Z,1.87
2022-11-19T08:15:38.261Z,1.99
2022-11-19T08:18:17.303Z,2.04
2022-11-19T08:20:49.451Z,1.80
2022-11-19T08:23:22.167Z,1.99
2022-11-19T08:25:54.478Z,1.89
2022-11-19T08:28:26.780Z,1.79
2022-11-19T08:31:06.497Z,1.92
2022-11-19T08:33:39.023Z,2.07
2022-11-19T08:36:12.963Z,1.80
2022-11-19T08:38:44.935Z,1.83
2022-11-19T08:41:35.291Z,1.77
2022-11-19T08:44:07.431Z,1.93
2022-11-19T08:46:39.199Z,1.98
2022-11-19T08:49:13.449Z,1.67
2022-11-19T08:51:45.313Z,1.50
2022-11-19T08:54:17.657Z,1.47
2022-11-19T08:56:49.785Z,1.61
2022-11-19T08:59:23.338Z,1.43
2022-11-19T09:01:57.087Z,1.68
2022-11-19T09:04:30.549Z,1.77
2022-11-19T09:07:02.868Z,1.66
2022-11-19T09:09:35.425Z,1.65
2022-11-19T09:12:08.928Z,1.73
2022-11-19T09:14:41.036Z,1.79
2022-11-19T09:17:13.568Z,1.96
2022-11-19T09:19:45.399Z,1.91
2022-11-19T09:22:17.351Z,1.83
2022-11-19T09:24:49.345Z,1.87
2022-11-19T09:27:21.722Z,1.91
2022-11-19T09:29:53.966Z,1.85
2022-11-19T09:32:25.989Z,2.16
2022-11-19T09:34:58.071Z,2.18
2022-11-19T09:37:31.604Z,2.09
2022-11-19T09:40:03.429Z,2.03
2022-11-19T09:42:42.392Z,2.29
2022-11-19T09:45:26.832Z,2.42
2022-11-19T09:48:22.300Z,2.62
2022-11-19T09:50:55.038Z,2.56
2022-11-19T09:53:30.347Z,2.41
2022-11-19T09:56:02.726Z,2.49
2022-11-19T09:58:39.212Z,2.66
2022-11-19T10:01:14.718Z,2.81
2022-11-19T10:03:51.311Z,2.80
2022-11-19T10:06:29.104Z,2.58
2022-11-19T10:09:19.699Z,2.79
2022-11-19T10:12:06.167Z,2.84
2022-11-19T10:14:56.525Z,3.04
2022-11-19T10:17:45.346Z,3.26
2022-11-19T10:20:40.954Z,3.36
2022-11-19T10:23:17.904Z,3.11
2022-11-19T10:25:55.165Z,3.20
2022-11-19T10:28:30.687Z,3.12
2022-11-19T10:31:09.884Z,3.25
2022-11-19T10:33:47.987Z,3.33
2022-11-19T10:36:25.359Z,3.21
2022-11-19T10:39:03.912Z,3.20
2022-11-19T10:41:45.545Z,3.28
2022-11-19T10:44:41.395Z,3.38
2022-11-19T10:47:19.293Z,3.69
2022-11-19T10:49:55.365Z,3.58
2022-11-19T10:52:32.197Z,3.54
2022-11-19T10:55:19.032Z,3.52
2022-11-19T10:57:53.936Z,3.90
2022-11-19T11:00:26.048Z,3.73
2022-11-19T11:03:03.094Z,3.84
2022-11-19T11:06:03.387Z,4.11
2022-11-19T11:08:47.992Z,3.80
2022-11-19T11:11:26.098Z,3.78
2022-11-19T11:14:19.587Z,3.76
2022-11-19T11:16:51.743Z,3.59
2022-11-19T11:19:23.904Z,3.51
2022-11-19T11:21:56.538Z,3.43
2022-11-19T11:24:36.194Z,3.44
2022-11-19T11:27:28.214Z,3.18
2022-11-19T11:30:20.681Z,3.14
2022-11-19T11:32:53.011Z,2.69
2022-11-19T11:35:37.839Z,2.72
2022-11-19T11:38:10.610Z,2.81
2022-11-19T11:40:42.694Z,2.84
2022-11-19T11:43:20.309Z,2.92
2022-11-19T11:45:59.545Z,2.95
2022-11-19T11:48:36.038Z,2.71
2022-11-19T11:51:08.638Z,2.76
2022-11-19T11:53:43.086Z,2.71
2022-11-19T11:56:22.338Z,2.48
2022-11-19T11:58:54.398Z,2.68
2022-11-19T12:01:26.139Z,2.53
2022-11-19T12:04:00.015Z,2.50
2022-11-19T12:06:39.608Z,2.63
2022-11-19T12:09:17.542Z,2.50
2022-11-19T12:11:56.500Z,2.42
2022-11-19T12:14:33.626Z,2.41
2022-11-19T12:17:30.577Z,2.29
2022-11-19T12:20:31.049Z,2.48
2022-11-19T12:23:17.916Z,2.54
2022-11-19T12:26:01.905Z,2.49
2022-11-19T12:28:55.226Z,2.63
2022-11-19T12:31:39.388Z,2.57
2022-11-19T12:34:42.723Z,2.53
2022-11-19T12:37:28.840Z,2.55
2022-11-19T12:40:16.608Z,2.44
2022-11-19T12:43:03.836Z,2.20
2022-11-19T12:45:47.944Z,2.44
2022-11-19T12:48:39.817Z,2.28
2022-11-19T12:51:22.386Z,2.22
2022-11-19T12:54:09.937Z,2.08
2022-11-19T12:56:55.669Z,1.82
2022-11-19T12:59:43.746Z,2.19
2022-11-19T13:02:24.359Z,2.06
2022-11-19T13:05:02.720Z,2.12
2022-11-19T13:07:41.510Z,2.32
2022-11-19T13:10:23.176Z,2.39
2022-11-19T13:12:59.376Z,1.81
2022-11-19T13:15:35.060Z,1.87
2022-11-19T13:18:15.164Z,1.83
2022-11-19T13:20:52.884Z,2.04
2022-11-19T13:23:28.819Z,2.05
2022-11-19T13:26:04.377Z,1.95
2022-11-19T13:28:43.789Z,2.18
2022-11-19T13:31:24.001Z,2.28
2022-11-19T13:34:08.751Z,2.00
2022-11-19T13:36:48.348Z,1.76
2022-11-19T13:39:28.533Z,1.63
2022-11-19T13:42:22.643Z,1.78
2022-11-19T13:44:55.403Z,1.57
2022-11-19T13:47:35.058Z,1.60
2022-11-19T13:50:16.087Z,1.56
2022-11-19T13:52:59.383Z,1.69
2022-11-19T13:55:40.961Z,1.65
2022-11-19T13:58:24.795Z,1.94
2022-11-19T14:01:16.516Z,1.69
2022-11-19T14:04:09.679Z,1.48
2022-11-19T14:07:09.904Z,1.84
2022-11-19T14:10:04.564Z,2.04
2022-11-19T14:12:59.136Z,1.97
2022-11-19T14:16:02.307Z,1.91
2022-11-19T14:18:57.271Z,2.03
2022-11-19T14:22:09.847Z,2.01
2022-11-19T14:25:18.391Z,1.97
2022-11-19T14:27:51.152Z,1.95
2022-11-19T14:31:04.537Z,1.85
2022-11-19T14:34:00.335Z,1.70
2022-11-19T14:36:50.834Z,1.88
2022-11-19T14:39:28.121Z,1.87
2022-11-19T14:42:18.724Z,1.78
2022-11-19T14:45:21.177Z,1.54
2022-11-19T14:48:06.165Z,1.74
2022-11-19T14:50:38.552Z,1.81
2022-11-19T14:53:23.023Z,1.90
2022-11-19T14:55:57.845Z,1.84
2022-11-19T14:58:28.881Z,2.04
2022-11-19T15:01:18.037Z,2.03
2022-11-19T15:03:58.984Z,2.10
2022-11-19T15:06:37.170Z,1.95
2022-11-19T15:09:13.828Z,2.00
2022-11-19T15:12:04.483Z,2.04
2022-11-19T15:15:05.106Z,1.90
2022-11-19T15:17:37.472Z,2.06
2022-11-19T15:20:29.784Z,2.03
2022-11-19T15:23:14.583Z,2.00
2022-11-19T15:26:00.468Z,1.99
2022-11-19T15:28:46.237Z,2.03
2022-11-19T15:31:32.500Z,1.86
2022-11-19T15:34:22.351Z,1.84
2022-11-19T15:37:00.367Z,2.13
2022-11-19T15:39:39.497Z,2.00
2022-11-19T15:42:21.157Z,1.92
2022-11-19T15:44:58.706Z,1.93
2022-11-19T15:47:41.345Z,2.04
2022-11-19T15:50:22.239Z,2.11
2022-11-19T15:53:18.729Z,1.98
2022-11-19T15:55:57.992Z,2.04
2022-11-19T15:58:37.106Z,2.05
2022-11-19T16:01:15.163Z,1.99
2022-11-19T16:03:51.178Z,1.78
2022-11-19T16:06:26.315Z,1.88
2022-11-19T16:09:01.666Z,1.90
2022-11-19T16:11:56.214Z,1.72
2022-11-19T16:14:48.495Z,1.78
2022-11-19T16:17:41.643Z,2.01
2022-11-19T16:20:23.720Z,2.04
2022-11-19T16:23:03.066Z,2.08
2022-11-19T16:25:38.157Z,2.03
2022-11-19T16:28:14.837Z,2.09
2022-11-19T16:30:49.929Z,1.89
2022-11-19T16:33:25.063Z,2.03
2022-11-19T16:36:14.155Z,2.14
2022-11-19T16:38:50.949Z,2.25
2022-11-19T16:41:43.880Z,2.18
2022-11-19T16:44:22.629Z,2.22
2022-11-19T16:46:55.586Z,2.15
2022-11-19T16:49:41.674Z,2.11
2022-11-19T16:52:38.921Z,2.13
2022-11-19T16:55:52.621Z,2.26
2022-11-19T16:58:29.089Z,2.38
2022-11-19T17:01:02.542Z,2.26
2022-11-19T17:03:41.504Z,2.06
2022-11-19T17:06:25.174Z,2.25
2022-11-19T17:09:01.925Z,2.29
2022-11-19T17:12:09.480Z,2.16
2022-11-19T17:14:54.380Z,2.17
2022-11-19T17:17:43.429Z,2.12
2022-11-19T17:21:00.231Z,2.11
2022-11-19T17:23:38.204Z,2.13
2022-11-19T17:26:17.850Z,2.00
2022-11-19T17:28:54.561Z,2.00
2022-11-19T17:31:28.450Z,1.92
2022-11-19T17:34:12.218Z,2.14
2022-11-19T17:36:45.191Z,2.17
2022-11-19T17:39:22.525Z,2.20
2022-11-19T17:42:17.569Z,2.34
2022-11-19T17:44:49.458Z,2.32
2022-11-19T17:47:25.704Z,2.25
2022-11-19T17:49:58.196Z,1.97
2022-11-19T17:52:31.887Z,2.02
2022-11-19T17:55:18.059Z,2.07
2022-11-19T17:57:49.942Z,1.88
2022-11-19T18:00:22.879Z,1.87
2022-11-19T18:02:57.839Z,1.69
2022-11-19T18:05:37.937Z,1.93
2022-11-19T18:08:10.634Z,1.79
2022-11-19T18:10:45.732Z,1.77
2022-11-19T18:13:22.709Z,1.83
2022-11-19T18:15:55.284Z,1.92
2022-11-19T18:18:27.288Z,1.96
2022-11-19T18:21:02.080Z,1.89
2022-11-19T18:23:34.244Z,1.89
2022-11-19T18:26:06.435Z,2.00
2022-11-19T18:28:39.079Z,2.06
2022-11-19T18:31:17.856Z,2.19
2022-11-19T18:33:51.034Z,2.13
2022-11-19T18:36:24.289Z,2.04
2022-11-19T18:38:59.563Z,1.97
2022-11-19T18:41:32.846Z,2.03
2022-11-19T18:44:25.347Z,2.07
2022-11-19T18:46:59.432Z,2.07
2022-11-19T18:49:34.367Z,2.10
2022-11-19T18:52:09.774Z,1.86
2022-11-19T18:54:42.165Z,1.90
2022-11-19T18:57:14.938Z,1.95
2022-11-19T18:59:48.829Z,1.97
2022-11-19T19:02:21.873Z,1.85
2022-11-19T19:04:53.935Z,2.01
2022-11-19T19:07:27.330Z,1.98
2022-11-19T19:10:00.289Z,1.88
2022-11-19T19:12:33.367Z,1.90
2022-11-19T19:15:06.130Z,1.83
2022-11-19T19:17:38.046Z,1.77
2022-11-19T19:20:14.823Z,1.65
2022-11-19T19:22:46.900Z,1.76
2022-11-19T19:25:19.763Z,1.74
2022-11-19T19:27:51.969Z,1.91
2022-11-19T19:30:23.961Z,2.00
2022-11-19T19:32:56.067Z,2.08
2022-11-19T19:35:28.239Z,2.19
2022-11-19T19:37:59.999Z,2.20
2022-11-19T19:40:32.229Z,2.12
2022-11-19T19:43:06.392Z,2.16
2022-11-19T19:45:38.478Z,2.22
2022-11-19T19:48:11.857Z,2.22
2022-11-19T19:50:52.427Z,2.32
2022-11-19T19:53:24.400Z,2.28
2022-11-19T19:56:04.987Z,2.38
2022-11-19T19:58:38.506Z,2.30
2022-11-19T20:01:13.184Z,2.43
2022-11-19T20:03:50.393Z,2.51
2022-11-19T20:06:26.500Z,2.44
2022-11-19T20:09:04.242Z,2.41
2022-11-19T20:11:40.216Z,2.29
2022-11-19T20:14:13.738Z,2.33
2022-11-19T20:16:45.899Z,2.36
2022-11-19T20:19:18.037Z,2.24
2022-11-19T20:21:52.472Z,2.40
2022-11-19T20:24:25.642Z,2.30
2022-11-19T20:26:59.439Z,2.26
2022-11-19T20:29:32.583Z,2.37
2022-11-19T20:32:05.996Z,2.42
2022-11-19T20:34:38.808Z,2.37
2022-11-19T20:37:11.834Z,2.35
2022-11-19T20:39:43.867Z,2.35
2022-11-19T20:42:33.732Z,2.32
2022-11-19T20:45:09.775Z,2.32
2022-11-19T20:47:42.932Z,2.29
2022-11-19T20:50:15.295Z,2.43
2022-11-19T20:52:48.781Z,2.42
2022-11-19T20:55:20.809Z,2.43
2022-11-19T20:57:53.464Z,2.36
2022-11-19T21:00:26.239Z,2.36
2022-11-19T21:02:58.426Z,2.26
2022-11-19T21:05:31.990Z,2.24
2022-11-19T21:08:05.396Z,2.44
2022-11-19T21:10:37.762Z,2.54
2022-11-19T21:13:09.860Z,2.41
2022-11-19T21:15:41.991Z,2.14
2022-11-19T21:18:15.251Z,2.11
2022-11-19T21:20:47.513Z,2.31
2022-11-19T21:23:21.222Z,2.43
2022-11-19T21:25:54.081Z,2.20
2022-11-19T21:28:26.415Z,2.29
2022-11-19T21:31:00.781Z,2.40
2022-11-19T21:33:34.001Z,2.47
2022-11-19T21:36:08.900Z,2.45
2022-11-19T21:38:42.748Z,2.51
2022-11-19T21:41:15.042Z,2.40
2022-11-19T21:43:47.236Z,2.34
2022-11-19T21:46:20.981Z,2.24
2022-11-19T21:48:53.087Z,2.40
2022-11-19T21:51:26.458Z,2.58
2022-11-19T21:53:59.837Z,2.44
2022-11-19T21:56:38.231Z,2.57
2022-11-19T21:59:13.420Z,2.64
2022-11-19T22:01:53.293Z,2.54
2022-11-19T22:04:26.831Z,2.45
2022-11-19T22:06:59.170Z,2.54
2022-11-19T22:09:33.079Z,2.61
2022-11-19T22:12:05.631Z,2.62
2022-11-19T22:14:37.947Z,2.61
2022-11-19T22:17:10.168Z,2.64
2022-11-19T22:19:42.117Z,2.60
2022-11-19T22:22:14.775Z,2.68
2022-11-19T22:24:46.809Z,2.55
2022-11-19T22:27:22.022Z,2.52
2022-11-19T22:29:56.523Z,2.37
2022-11-19T22:32:31.336Z,2.37
2022-11-19T22:35:03.410Z,2.29
2022-11-19T22:37:37.114Z,2.19
2022-11-19T22:40:13.341Z,2.35
2022-11-19T22:42:45.887Z,2.30
2022-11-19T22:45:18.457Z,2.22
2022-11-19T22:47:50.318Z,2.17
2022-11-19T22:50:22.253Z,2.28
2022-11-19T22:52:55.015Z,2.30
2022-11-19T22:55:26.775Z,2.19
2022-11-19T22:57:59.175Z,2.26
2022-11-19T23:00:47.181Z,2.34
2022-11-19T23:03:20.815Z,2.17
2022-11-19T23:05:55.040Z,2.41
2022-11-19T23:08:28.484Z,2.35
2022-11-19T23:11:03.361Z,2.44
2022-11-19T23:13:40.729Z,2.51
2022-11-19T23:16:16.624Z,2.35
2022-11-19T23:18:52.471Z,2.60
2022-11-19T23:21:28.932Z,2.32
2022-11-19T23:24:01.220Z,2.51
2022-11-19T23:26:35.900Z,2.47
2022-11-19T23:29:09.326Z,2.40
2022-11-19T23:31:42.823Z,2.36
2022-11-19T23:34:15.066Z,2.36
2022-11-19T23:36:48.347Z,2.44
2022-11-19T23:39:21.643Z,2.55
2022-11-19T23:41:55.402Z,2.69
2022-11-19T23:44:27.484Z,2.60
2022-11-19T23:46:59.193Z,2.73
2022-11-19T23:49:31.062Z,2.74
2022-11-19T23:52:02.961Z,2.82
2022-11-19T23:54:34.802Z,2.83
2022-11-19T23:57:06.605Z,2.78
2022-11-19T23:59:39.639Z,2.75
